createdAt,value
2022-08-22T00:01:27.862Z,100887.66
2022-08-22T00:03:01.452Z,100751.31
2022-08-22T00:03:10.012Z,100804.03
2022-08-22T00:03:12.821Z,100762.78
2022-08-22T00:04:08.159Z,100897.13
2022-08-22T00:06:44.627Z,100891.06
2022-08-22T00:09:29.526Z,100895.13
2022-08-22T00:12:05.111Z,100894.13
2022-08-22T00:14:42.117Z,100894.13
2022-08-22T00:17:28.069Z,100889.59
2022-08-22T00:20:03.466Z,100844.41
2022-08-22T00:22:39.627Z,100887.06
2022-08-22T00:25:31.234Z,100883.66
2022-08-22T00:28:04.939Z,100871.41
2022-08-22T00:30:42.754Z,100891.59
2022-08-22T00:33:19.720Z,100896.97
2022-08-22T00:35:53.883Z,100887.34
2022-08-22T00:38:29.021Z,100894.44
2022-08-22T00:41:02.326Z,100894.13
2022-08-22T00:44:01.727Z,100898.69
2022-08-22T00:46:52.937Z,100896.16
2022-08-22T00:49:52.420Z,100895.84
2022-08-22T00:52:38.948Z,100858.56
2022-08-22T00:55:28.067Z,100899.50
2022-08-22T00:58:31.411Z,100860.84
2022-08-22T01:01:06.965Z,100904.91
2022-08-22T01:04:02.811Z,100904.06
2022-08-22T01:06:44.747Z,100906.94
2022-08-22T01:09:25.709Z,100914.00
2022-08-22T01:12:19.672Z,100918.38
2022-08-22T01:14:52.674Z,100912.31
2022-08-22T01:17:50.332Z,100919.22
2022-08-22T01:20:53.636Z,100899.06
2022-08-22T01:24:04.839Z,100922.78
2022-08-22T01:27:22.199Z,100914.00
2022-08-22T01:30:19.424Z,100914.84
2022-08-22T01:33:23.414Z,100921.06
2022-08-22T01:36:16.934Z,100912.97
2022-08-22T01:39:09.102Z,100921.06
2022-08-22T01:42:17.280Z,100927.47
2022-08-22T01:45:23.233Z,100924.78
2022-08-22T01:47:56.315Z,100937.25
2022-08-22T01:50:30.881Z,100937.25
2022-08-22T01:53:07.168Z,100926.75
2022-08-22T01:55:41.386Z,100940.94
2022-08-22T01:58:18.047Z,100937.25
2022-08-22T02:01:06.464Z,100938.97
2022-08-22T02:03:39.881Z,100874.84
2022-08-22T02:06:14.538Z,100940.63
2022-08-22T02:08:51.740Z,100938.97
2022-08-22T02:11:39.528Z,100953.09
2022-08-22T02:14:18.204Z,100946.34
2022-08-22T02:16:50.792Z,100935.16
2022-08-22T02:19:32.352Z,100917.53
2022-08-22T02:22:06.179Z,100951.41
2022-08-22T02:24:50.700Z,100948.03
2022-08-22T02:27:29.884Z,100953.09
2022-08-22T02:30:05.737Z,100953.97
2022-08-22T02:32:45.373Z,100939.31
2022-08-22T02:35:23.478Z,100960.19
2022-08-22T02:38:01.125Z,100947.72
2022-08-22T02:40:36.527Z,100952.13
2022-08-22T02:43:12.910Z,100954.81
2022-08-22T02:45:47.123Z,100948.56
2022-08-22T02:48:27.984Z,100947.56
2022-08-22T02:51:02.665Z,100951.41
2022-08-22T02:53:38.300Z,100958.50
2022-08-22T02:56:14.271Z,100947.72
2022-08-22T02:58:50.688Z,100929.09
2022-08-22T03:01:40.861Z,100938.47
2022-08-22T03:04:53.061Z,100948.03
2022-08-22T03:07:32.335Z,100963.88
2022-08-22T03:10:10.357Z,100956.81
2022-08-22T03:12:47.985Z,100957.66
2022-08-22T03:15:22.808Z,100936.22
2022-08-22T03:17:57.323Z,100960.50
2022-08-22T03:20:43.339Z,100967.59
2022-08-22T03:23:20.554Z,100939.63
2022-08-22T03:25:55.919Z,100966.72
2022-08-22T03:28:29.840Z,100977.00
2022-08-22T03:31:00.600Z,100973.28
2022-08-22T03:33:30.826Z,100936.28
2022-08-22T03:36:06.887Z,100980.34
2022-08-22T03:39:14.129Z,100976.69
2022-08-22T03:42:04.316Z,100982.91
2022-08-22T03:45:00.408Z,100972.34
2022-08-22T03:48:00.191Z,100987.59
2022-08-22T03:50:54.523Z,100992.84
2022-08-22T03:53:46.064Z,100991.13
2022-08-22T03:56:32.755Z,101000.22
2022-08-22T03:59:23.833Z,100992.28
2022-08-22T04:02:33.440Z,101000.22
2022-08-22T04:05:37.836Z,100999.38
2022-08-22T04:08:34.439Z,101001.09
2022-08-22T04:11:32.476Z,100961.81
2022-08-22T04:14:40.147Z,101003.94
2022-08-22T04:17:27.454Z,101013.00
2022-08-22T04:20:22.182Z,101011.31
2022-08-22T04:23:13.208Z,101027.47
2022-08-22T04:25:44.693Z,101024.78
2022-08-22T04:28:20.828Z,101019.41
2022-08-22T04:30:54.795Z,101027.47
2022-08-22T04:33:29.618Z,101012.91
2022-08-22T04:36:03.625Z,101030.88
2022-08-22T04:38:39.749Z,100995.28
2022-08-22T04:41:13.552Z,101027.19
2022-08-22T04:43:48.491Z,101032.56
2022-08-22T04:46:32.128Z,100967.81
2022-08-22T04:49:09.453Z,101042.19
2022-08-22T04:51:45.145Z,100987.75
2022-08-22T04:54:33.763Z,100951.16
2022-08-22T04:57:17.243Z,101026.69
2022-08-22T04:59:45.915Z,101050.41
2022-08-22T05:02:24.290Z,101047.06
2022-08-22T05:05:01.838Z,101059.50
2022-08-22T05:07:36.833Z,101020.50
2022-08-22T05:10:11.960Z,101074.66
2022-08-22T05:12:46.968Z,101041.75
2022-08-22T05:15:23.307Z,101085.44
2022-08-22T05:17:56.092Z,101090.69
2022-08-22T05:20:26.552Z,101044.72
2022-08-22T05:22:59.475Z,101088.16
2022-08-22T05:25:30.204Z,101095.25
2022-08-22T05:28:08.660Z,101083.34
2022-08-22T05:30:37.174Z,101061.31
2022-08-22T05:33:16.474Z,101065.00
2022-08-22T05:35:50.856Z,101097.09
2022-08-22T05:38:27.699Z,101101.47
2022-08-22T05:41:01.394Z,101108.59
2022-08-22T05:43:30.083Z,101080.88
2022-08-22T05:46:00.319Z,101105.31
2022-08-22T05:48:35.921Z,101111.13
2022-08-22T05:51:12.632Z,101112.81
2022-08-22T05:53:43.259Z,101112.81
2022-08-22T05:56:16.914Z,101114.50
2022-08-22T05:58:51.153Z,101055.09
2022-08-22T06:01:25.236Z,101111.72
2022-08-22T06:04:02.507Z,101120.19
2022-08-22T06:06:34.298Z,101121.91
2022-08-22T06:09:06.878Z,101120.19
2022-08-22T06:11:41.553Z,101121.91
2022-08-22T06:14:24.781Z,101130.97
2022-08-22T06:17:01.550Z,101132.69
2022-08-22T06:19:31.519Z,101134.66
2022-08-22T06:21:59.499Z,101132.97
2022-08-22T06:24:29.437Z,101136.34
2022-08-22T06:27:06.225Z,101128.56
2022-08-22T06:29:38.816Z,101127.28
2022-08-22T06:32:13.765Z,101116.00
2022-08-22T06:34:46.433Z,101136.34
2022-08-22T06:37:21.406Z,101141.06
2022-08-22T06:39:52.898Z,101145.44
2022-08-22T06:42:25.402Z,101142.75
2022-08-22T06:45:00.591Z,101136.66
2022-08-22T06:47:33.974Z,101144.75
2022-08-22T06:50:13.603Z,101146.91
2022-08-22T06:52:53.104Z,101152.00
2022-08-22T06:55:22.981Z,101158.50
2022-08-22T06:57:56.845Z,101158.50
2022-08-22T07:00:26.120Z,101158.50
2022-08-22T07:02:57.983Z,101156.09
2022-08-22T07:05:29.505Z,101143.94
2022-08-22T07:07:58.168Z,101158.50
2022-08-22T07:10:26.604Z,101138.44
2022-08-22T07:12:57.794Z,101129.97
2022-08-22T07:15:34.550Z,101162.22
2022-08-22T07:18:06.388Z,101157.81
2022-08-22T07:20:38.773Z,101163.06
2022-08-22T07:23:10.320Z,101161.34
2022-08-22T07:25:51.765Z,101164.03
2022-08-22T07:28:51.234Z,101143.53
2022-08-22T07:31:34.276Z,101180.34
2022-08-22T07:34:17.167Z,101180.34
2022-08-22T07:36:50.076Z,101186.03
2022-08-22T07:39:26.731Z,101186.03
2022-08-22T07:42:07.037Z,101146.97
2022-08-22T07:44:42.746Z,101181.66
2022-08-22T07:47:16.856Z,101190.31
2022-08-22T07:49:57.635Z,101124.91
2022-08-22T07:52:30.890Z,101193.16
2022-08-22T07:55:07.487Z,101196.69
2022-08-22T07:57:41.306Z,101197.69
2022-08-22T08:00:15.902Z,101205.63
2022-08-22T08:02:47.878Z,101201.25
2022-08-22T08:05:17.548Z,101202.22
2022-08-22T08:07:47.973Z,101205.63
2022-08-22T08:10:20.268Z,101201.91
2022-08-22T08:12:56.156Z,101212.03
2022-08-22T08:15:33.333Z,101174.28
2022-08-22T08:18:05.591Z,101202.22
2022-08-22T08:20:36.413Z,101205.06
2022-08-22T08:23:10.122Z,101204.22
2022-08-22T08:25:53.939Z,101200.53
2022-08-22T08:28:41.955Z,101202.22
2022-08-22T08:31:15.756Z,101204.91
2022-08-22T08:33:48.704Z,101206.78
2022-08-22T08:36:34.792Z,101202.22
2022-08-22T08:39:15.566Z,101197.69
2022-08-22T08:42:01.875Z,101218.38
2022-08-22T08:44:57.619Z,101213.00
2022-08-22T08:47:50.954Z,101212.16
2022-08-22T08:50:44.158Z,101213.00
2022-08-22T08:53:39.002Z,101224.78
2022-08-22T08:56:19.963Z,101215.00
2022-08-22T08:58:55.661Z,101220.38
2022-08-22T09:01:45.633Z,101224.06
2022-08-22T09:04:31.253Z,101227.47
2022-08-22T09:07:28.609Z,101229.16
2022-08-22T09:10:16.667Z,101218.38
2022-08-22T09:13:11.737Z,101225.78
2022-08-22T09:16:05.194Z,101219.25
2022-08-22T09:19:04.432Z,101230.03
2022-08-22T09:22:14.488Z,101234.53
2022-08-22T09:25:18.601Z,101202.97
2022-08-22T09:27:55.361Z,101237.97
2022-08-22T09:30:28.601Z,101234.53
2022-08-22T09:33:01.173Z,101219.53
2022-08-22T09:35:39.900Z,101241.66
2022-08-22T09:38:27.035Z,101240.81
2022-08-22T09:41:02.403Z,101239.78
2022-08-22T09:43:41.868Z,101229.75
2022-08-22T09:46:20.653Z,101243.63
2022-08-22T09:49:05.629Z,101241.66
2022-08-22T09:51:40.595Z,101211.63
2022-08-22T09:54:34.123Z,101229.91
2022-08-22T09:57:18.736Z,101209.34
2022-08-22T10:00:15.060Z,101239.84
2022-08-22T10:02:52.939Z,101201.00
2022-08-22T10:05:40.935Z,101257.53
2022-08-22T10:08:46.200Z,101247.63
2022-08-22T10:11:24.842Z,101263.75
2022-08-22T10:14:04.488Z,101235.72
2022-08-22T10:16:56.407Z,101271.69
2022-08-22T10:19:29.115Z,101271.69
2022-08-22T10:22:32.333Z,101273.41
2022-08-22T10:25:16.444Z,101266.31
2022-08-22T10:27:56.304Z,101250.19
2022-08-22T10:30:28.587Z,101266.31
2022-08-22T10:33:05.295Z,101273.41
2022-08-22T10:35:39.035Z,101270.00
2022-08-22T10:38:12.399Z,101230.47
2022-08-22T10:40:49.440Z,101275.38
2022-08-22T10:43:28.812Z,101267.75
2022-08-22T10:46:04.300Z,101272.97
2022-08-22T10:48:46.509Z,101275.69
2022-08-22T10:51:25.532Z,101279.25
2022-08-22T10:54:38.386Z,101275.69
2022-08-22T10:57:15.462Z,101275.69
2022-08-22T10:59:58.593Z,101230.34
2022-08-22T11:02:53.598Z,101265.19
2022-08-22T11:05:42.799Z,101268.59
2022-08-22T11:08:35.291Z,101284.63
2022-08-22T11:11:11.132Z,101284.47
2022-08-22T11:13:44.816Z,101279.09
2022-08-22T11:16:30.527Z,101250.72
2022-08-22T11:19:15.978Z,101289.88
2022-08-22T11:22:04.786Z,101282.22
2022-08-22T11:25:04.444Z,101293.81
2022-08-22T11:27:40.881Z,101284.34
2022-08-22T11:30:18.719Z,101297.53
2022-08-22T11:33:13.764Z,101287.03
2022-08-22T11:35:45.577Z,101291.84
2022-08-22T11:38:32.612Z,101294.69
2022-08-22T11:41:06.663Z,101272.75
2022-08-22T11:43:50.575Z,101302.63
2022-08-22T11:46:26.335Z,101302.63
2022-08-22T11:49:25.588Z,101291.84
2022-08-22T11:52:04.680Z,101302.63
2022-08-22T11:54:47.180Z,101295.56
2022-08-22T11:57:28.223Z,101262.78
2022-08-22T12:00:10.150Z,101232.34
2022-08-22T12:02:50.276Z,101298.94
2022-08-22T12:05:24.623Z,101290.84
2022-08-22T12:08:01.293Z,101290.84
2022-08-22T12:10:35.268Z,101294.41
2022-08-22T12:13:09.571Z,101295.25
2022-08-22T12:15:44.880Z,101282.75
2022-08-22T12:18:39.449Z,101259.28
2022-08-22T12:21:53.820Z,101295.25
2022-08-22T12:24:47.473Z,101291.84
2022-08-22T12:27:28.678Z,101294.41
2022-08-22T12:30:14.042Z,101297.25
2022-08-22T12:33:14.823Z,101267.06
2022-08-22T12:36:17.999Z,101288.16
2022-08-22T12:39:07.839Z,101298.09
2022-08-22T12:42:01.930Z,101291.13
2022-08-22T12:44:46.658Z,101248.63
2022-08-22T12:47:34.449Z,101297.53
2022-08-22T12:50:19.987Z,101288.44
2022-08-22T12:53:09.450Z,101285.75
2022-08-22T12:55:52.457Z,101245.91
2022-08-22T12:58:35.466Z,101288.44
2022-08-22T13:01:08.278Z,101290.16
2022-08-22T13:03:42.152Z,101287.31
2022-08-22T13:06:54.312Z,101290.16
2022-08-22T13:09:30.773Z,101277.94
2022-08-22T13:12:04.751Z,101277.38
2022-08-22T13:14:35.263Z,101252.59
2022-08-22T13:17:24.270Z,101271.00
2022-08-22T13:20:03.214Z,101268.59
2022-08-22T13:22:36.130Z,101270.00
2022-08-22T13:25:09.500Z,101269.13
2022-08-22T13:27:50.630Z,101271.69
2022-08-22T13:30:22.070Z,101230.88
2022-08-22T13:32:54.257Z,101270.00
2022-08-22T13:35:25.748Z,101243.78
2022-08-22T13:37:59.305Z,101264.91
2022-08-22T13:40:30.631Z,101270.28
2022-08-22T13:43:06.795Z,101270.28
2022-08-22T13:45:37.309Z,101241.97
2022-08-22T13:48:11.367Z,101258.13
2022-08-22T13:50:58.131Z,101277.38
2022-08-22T13:53:34.380Z,101268.31
2022-08-22T13:56:15.597Z,101282.75
2022-08-22T13:58:48.425Z,101276.41
2022-08-22T14:01:29.276Z,101233.16
2022-08-22T14:04:02.778Z,101280.06
2022-08-22T14:06:47.253Z,101283.75
2022-08-22T14:09:31.202Z,101285.16
2022-08-22T14:12:12.217Z,101285.59
2022-08-22T14:14:46.188Z,101286.75
2022-08-22T14:17:19.510Z,101285.59
2022-08-22T14:19:59.337Z,101275.69
2022-08-22T14:22:35.364Z,101262.66
2022-08-22T14:25:08.852Z,101283.03
2022-08-22T14:27:39.971Z,101282.75
2022-08-22T14:30:16.360Z,101282.75
2022-08-22T14:32:51.635Z,101285.44
2022-08-22T14:35:37.686Z,101296.22
2022-08-22T14:38:30.132Z,101284.63
2022-08-22T14:41:04.069Z,101291.84
2022-08-22T14:43:51.243Z,101290.16
2022-08-22T14:46:27.007Z,101290.16
2022-08-22T14:49:24.984Z,101295.56
2022-08-22T14:52:01.427Z,101286.47
2022-08-22T14:54:33.791Z,101289.16
2022-08-22T14:57:10.206Z,101288.16
2022-08-22T14:59:45.474Z,101281.06
2022-08-22T15:02:18.937Z,101256.44
2022-08-22T15:04:50.958Z,101272.97
2022-08-22T15:07:26.329Z,101253.75
2022-08-22T15:09:57.813Z,101257.41
2022-08-22T15:12:30.784Z,101282.75
2022-08-22T15:15:02.033Z,101271.44
2022-08-22T15:17:38.444Z,101282.75
2022-08-22T15:20:12.124Z,101273.41
2022-08-22T15:22:46.215Z,101284.63
2022-08-22T15:25:18.253Z,101279.53
2022-08-22T15:27:53.436Z,101274.00
2022-08-22T15:30:35.554Z,101270.59
2022-08-22T15:33:14.572Z,101266.88
2022-08-22T15:35:44.586Z,101224.25
2022-08-22T15:38:32.345Z,101275.09
2022-08-22T15:41:36.671Z,101272.56
2022-08-22T15:44:14.915Z,101265.78
2022-08-22T15:47:04.146Z,101279.09
2022-08-22T15:49:36.705Z,101278.25
2022-08-22T15:52:20.945Z,101278.25
2022-08-22T15:55:27.352Z,101272.31
2022-08-22T15:58:07.517Z,101278.38
2022-08-22T16:00:44.832Z,101274.84
2022-08-22T16:03:25.570Z,101264.91
2022-08-22T16:05:57.907Z,101261.81
2022-08-22T16:08:32.951Z,101272.84
2022-08-22T16:11:32.979Z,101267.47
2022-08-22T16:14:21.344Z,101267.47
2022-08-22T16:17:04.101Z,101245.34
2022-08-22T16:19:33.780Z,101265.47
2022-08-22T16:22:13.483Z,101256.69
2022-08-22T16:25:06.078Z,101261.78
2022-08-22T16:27:35.260Z,101256.41
2022-08-22T16:30:10.336Z,101265.19
2022-08-22T16:32:39.318Z,101274.28
2022-08-22T16:35:07.622Z,101265.19
2022-08-22T16:37:50.445Z,101251.28
2022-08-22T16:40:25.301Z,101214.19
2022-08-22T16:43:12.723Z,101264.19
2022-08-22T16:45:45.604Z,101259.81
2022-08-22T16:48:26.611Z,101266.88
2022-08-22T16:51:12.196Z,101261.50
2022-08-22T16:54:10.124Z,101266.88
2022-08-22T16:56:51.122Z,101246.50
2022-08-22T16:59:38.239Z,101266.88
2022-08-22T17:02:33.537Z,101269.44
2022-08-22T17:05:17.838Z,101269.56
2022-08-22T17:08:04.642Z,101269.44
2022-08-22T17:10:47.302Z,101262.34
2022-08-22T17:13:28.013Z,101272.28
2022-08-22T17:16:16.511Z,101281.34
2022-08-22T17:19:01.580Z,101288.44
2022-08-22T17:21:38.598Z,101283.03
2022-08-22T17:24:33.409Z,101293.81
2022-08-22T17:27:08.480Z,101281.34
2022-08-22T17:29:49.446Z,101288.28
2022-08-22T17:32:24.801Z,101286.47
2022-08-22T17:35:26.861Z,101290.56
2022-08-22T17:38:09.887Z,101292.13
2022-08-22T17:40:43.773Z,101293.81
2022-08-22T17:43:22.925Z,101290.97
2022-08-22T17:46:13.301Z,101274.13
2022-08-22T17:48:48.213Z,101275.97
2022-08-22T17:51:28.827Z,101288.16
2022-08-22T17:54:03.057Z,101292.13
2022-08-22T17:56:44.611Z,101231.78
2022-08-22T17:59:21.245Z,101295.50
2022-08-22T18:01:53.968Z,101294.38
2022-08-22T18:04:32.752Z,101297.78
2022-08-22T18:07:25.504Z,101290.69
2022-08-22T18:09:59.132Z,101294.38
2022-08-22T18:12:34.834Z,101294.38
2022-08-22T18:15:10.151Z,101270.31
2022-08-22T18:17:44.433Z,101296.38
2022-08-22T18:20:16.313Z,101296.38
2022-08-22T18:22:52.262Z,101257.56
2022-08-22T18:25:40.217Z,101311.69
2022-08-22T18:28:13.641Z,101303.75
2022-08-22T18:30:56.028Z,101317.22
2022-08-22T18:33:32.832Z,101307.72
2022-08-22T18:36:09.179Z,101311.97
2022-08-22T18:38:47.739Z,101316.53
2022-08-22T18:41:26.668Z,101315.53
2022-08-22T18:43:55.506Z,101317.34
2022-08-22T18:46:44.173Z,101321.22
2022-08-22T18:49:37.530Z,101322.22
2022-08-22T18:52:37.379Z,101321.22
2022-08-22T18:55:28.591Z,101321.22
2022-08-22T19:01:05.625Z,101323.91
2022-08-22T19:03:50.473Z,101323.91
2022-08-22T19:06:44.627Z,101325.03
2022-08-22T19:09:38.937Z,101324.91
2022-08-22T19:12:20.579Z,101330.97
2022-08-22T19:15:07.085Z,101325.34
2022-08-22T19:18:08.230Z,101336.38
2022-08-22T19:20:56.600Z,101340.06
2022-08-22T19:23:46.105Z,101340.06
2022-08-22T19:26:29.737Z,101337.38
2022-08-22T19:29:00.397Z,101338.38
2022-08-22T19:31:45.700Z,101337.50
2022-08-22T19:34:33.978Z,101336.66
2022-08-22T19:37:32.474Z,101345.75
2022-08-22T19:40:05.426Z,101300.38
2022-08-22T19:42:36.952Z,101341.06
2022-08-22T19:45:19.577Z,101342.03
2022-08-22T19:47:56.941Z,101345.47
2022-08-22T19:50:35.478Z,101345.47
2022-08-22T19:53:37.211Z,101345.47
2022-08-22T19:56:13.825Z,101340.06
2022-08-22T19:58:57.524Z,101352.53
2022-08-22T20:01:40.295Z,101350.84
2022-08-22T20:04:21.671Z,101347.44
2022-08-22T20:07:02.090Z,101359.94
2022-08-22T20:09:45.073Z,101350.84
2022-08-22T20:12:20.103Z,101344.44
2022-08-22T20:14:49.159Z,101348.16
2022-08-22T20:17:40.915Z,101350.56
2022-08-22T20:20:19.283Z,101348.88
2022-08-22T20:22:58.272Z,101346.84
2022-08-22T20:25:44.570Z,101350.41
2022-08-22T20:28:37.027Z,101345.16
2022-08-22T20:31:10.560Z,101348.88
2022-08-22T20:33:42.892Z,101348.88
2022-08-22T20:36:28.490Z,101342.63
2022-08-22T20:39:02.658Z,101342.63
2022-08-22T20:41:35.696Z,101343.47
2022-08-22T20:44:12.690Z,101348.88
2022-08-22T20:46:57.669Z,101349.69
2022-08-22T20:49:30.397Z,101348.88
2022-08-22T20:52:00.524Z,101348.88
2022-08-22T20:54:32.586Z,101357.94
2022-08-22T20:57:03.708Z,101354.25
2022-08-22T20:59:37.060Z,101354.13
2022-08-22T21:02:11.674Z,101352.25
2022-08-22T21:04:46.218Z,101343.47
2022-08-22T21:07:22.007Z,101355.09
2022-08-22T21:10:17.679Z,101350.56
2022-08-22T21:13:09.586Z,101353.25
2022-08-22T21:15:40.176Z,101358.66
2022-08-22T21:18:08.531Z,101353.41
2022-08-22T21:20:38.682Z,101354.25
2022-08-22T21:23:09.954Z,101356.09
2022-08-22T21:25:54.434Z,101350.84
2022-08-22T21:28:30.324Z,101358.66
2022-08-22T21:30:58.557Z,101348.59
2022-08-22T21:33:27.274Z,101327.59
2022-08-22T21:35:57.547Z,101366.72
2022-08-22T21:38:26.221Z,101368.41
2022-08-22T21:41:02.891Z,101367.59
2022-08-22T21:43:34.667Z,101367.59
2022-08-22T21:46:03.454Z,101361.34
2022-08-22T21:48:40.219Z,101369.44
2022-08-22T21:51:43.013Z,101372.97
2022-08-22T21:54:21.239Z,101370.44
2022-08-22T21:56:54.935Z,101374.97
2022-08-22T21:59:26.640Z,101377.50
2022-08-22T22:02:31.118Z,101373.13
2022-08-22T22:05:00.111Z,101375.81
2022-08-22T22:07:29.077Z,101376.09
2022-08-22T22:09:57.452Z,101374.38
2022-08-22T22:12:26.948Z,101376.78
2022-08-22T22:14:54.990Z,101379.50
2022-08-22T22:17:23.032Z,101381.22
2022-08-22T22:19:51.228Z,101382.91
2022-08-22T22:22:21.385Z,101382.03
2022-08-22T22:24:49.380Z,101376.66
2022-08-22T22:27:17.839Z,101390.25
2022-08-22T22:29:47.409Z,101392.00
2022-08-22T22:32:15.473Z,101381.50
2022-08-22T22:34:43.450Z,101386.59
2022-08-22T22:37:12.545Z,101392.00
2022-08-22T22:39:40.698Z,101392.00
2022-08-22T22:42:09.929Z,101384.88
2022-08-22T22:44:38.107Z,101387.56
2022-08-22T22:47:07.728Z,101404.47
2022-08-22T22:49:35.753Z,101399.06
2022-08-22T22:52:03.953Z,101393.69
2022-08-22T22:54:32.616Z,101398.06
2022-08-22T22:57:02.160Z,101399.06
2022-08-22T22:59:30.262Z,101405.47
2022-08-22T23:02:03.456Z,101405.47
2022-08-22T23:04:34.181Z,101390.28
2022-08-22T23:07:03.047Z,101402.78
2022-08-22T23:09:38.536Z,101408.16
2022-08-22T23:12:13.442Z,101411.81
2022-08-22T23:14:41.555Z,101408.31
2022-08-22T23:17:09.606Z,101400.78
2022-08-22T23:19:39.392Z,101411.13
2022-08-22T23:22:08.522Z,101415.53
2022-08-22T23:24:38.733Z,101411.13
2022-08-22T23:27:09.551Z,101402.34
2022-08-22T23:29:38.472Z,101413.84
2022-08-22T23:32:06.901Z,101415.53
2022-08-22T23:34:36.608Z,101425.44
2022-08-22T23:37:08.778Z,101422.19
2022-08-22T23:39:38.285Z,101415.81
2022-08-22T23:42:07.899Z,101421.19
2022-08-22T23:44:39.277Z,101419.50
2022-08-22T23:47:08.786Z,101426.59
2022-08-22T23:49:38.269Z,101424.91
2022-08-22T23:52:09.302Z,101421.19
2022-08-22T23:54:37.327Z,101414.13
2022-08-22T23:57:11.979Z,101427.44
2022-08-22T23:59:48.502Z,101419.50
